Airfield :







YOU CAN JOIN US ON...

 
LOGIN :

Register | Disclaimer

   EN    FR    IT 

 









Legend :    VFR   Marginal VFR   IFR   Intensive IFR   Very Intensive IFR
Visi :
Ceiling :
>= 8 km
>= 3000ft
5 to 8 km
1000 to 3000 ft
1500m to 5 km
500 to 1000 ft
800 to 1500m
200 to 500 ft
< 800m
< 200 ft
Symbols :   Thunderstorms  Fog  Heavy snow  Heavy precipitations  Wind > 20 kt






- Airport Elevation : 335 ft
- IATA code : BTV


KBTV - Burlington International

CURRENT METAR :
  • 191454Z 28013G22KT 10SM BKN065 M01/M14 A3012 RMK AO2 PK WND 28028/1433 SLP204 60000 T10061139 51036

EXPIRED METARs :
  • 191354Z 27009G21KT 9SM BKN036 BKN048 BKN060 M02/M07 A3010 RMK AO2 PK WND 25026/1332 SNE06B17E54 SLP197 P0000 T10171067
  • 191336Z 27015G26KT 2SM BKN043 BKN050 M02/M07 A3009 RMK AO2 PK WND 25026/1332 SFC VIS 10 SNE06B17E30 P0000 T10171067
  • 191309Z 27013G20KT 2SM BKN025 BKN034 BKN043 M01/M06 A3007 RMK AO2 SFC VIS 9 SNE06 P0000 T10111061
  • 191300Z 27011G20KT 1SM R15/4000VP6000FT -SN BKN020 OVC040 M02/M05 A3006 RMK AO2 P0000 T10171050
  • 191246Z 30019G27KT 1/2SM R15/2400VP6000FT SN SCT040 BKN048 M02/M05 A3005 RMK AO2 PK WND 32027/1244 TWR VIS 1 SNB40 P0000 T10171050

TAF KBTV
Valid from the 19 at 13:00 until the 20 at 12:00 UTC


191308Z 1913/2012 26012G24KT P6SM VCSH SCT025 OVC040
FM191700 31016G25KT P6SM SCT045
FM200500 33006KT P6SM BKN035



MET'MAP, your aeronautical weather chart ! - Copyright ORBIFLY December 2007 - Disclaimer

ORBIFLY MET'MAP TEAM :

Programming & Development : Alexandra Zaïnal
Concept & original design : Baudouin d'Aumeries
Assistance for programming : Marc-Olivier Méhu
Technical & hardware support : Manuel Goepfert

Contact : metmap@orbifly.com




SOURCES & CREDITS :

   NOAA